Time;durP1;ratioP1;P1;durP2;ratioP2;P2;SDS_P1;SDS_P2;PMS_P1;PMS_P2;Temp;Humidity;BMP_temperature;BMP_pressure;BME280_temperature;BME280_humidity;BME280_pressure;Samples;Min_cycle;Max_cycle;Signal;HPM_P1;HPM_P2
2021/07/06 00:00:35;;;;;;;5.78;2.72;;;;;;;;;;6088357;29;20068;-75
2021/07/06 00:03:37;;;;;;;6.55;2.55;;;;;;;;;;6094229;29;20136;-74
2021/07/06 00:06:39;;;;;;;4.90;2.72;;;;;;;;;;6096815;29;20187;-76
2021/07/06 00:09:41;;;;;;;5.15;2.60;;;;;;;;;;6094133;29;20124;-72
2021/07/06 00:12:43;;;;;;;4.47;2.10;;;;;;;;;;6100431;29;20140;-74
2021/07/06 00:15:46;;;;;;;5.15;2.75;;;;;;;;;;6097983;29;20111;-81
2021/07/06 00:18:47;;;;;;;4.93;2.75;;;;;;;;;;6085086;29;20162;-73
2021/07/06 00:21:49;;;;;;;2.90;1.77;;;;;;;;;;6092868;29;20130;-76
2021/07/06 00:24:51;;;;;;;3.30;1.95;;;;;;;;;;6093754;29;20131;-76
2021/07/06 00:27:53;;;;;;;2.80;1.70;;;;;;;;;;6094743;29;20080;-75
2021/07/06 00:30:57;;;;;;;4.07;1.65;;;;;;;;;;6096499;29;20052;-75
2021/07/06 00:34:02;;;;;;;2.58;1.80;;;;;;;;;;6098846;29;20515;-76
2021/07/06 00:37:04;;;;;;;3.08;1.67;;;;;;;;;;6099662;29;20056;-77
2021/07/06 00:40:08;;;;;;;4.85;1.80;;;;;;;;;;6096942;29;20059;-75
2021/07/06 00:43:09;;;;;;;3.28;1.75;;;;;;;;;;6104648;29;20075;-75
2021/07/06 00:46:12;;;;;;;4.38;1.40;;;;;;;;;;6101344;29;20152;-75
2021/07/06 00:49:15;;;;;;;2.80;1.67;;;;;;;;;;6119528;28;20163;-75
2021/07/06 00:52:16;;;;;;;6.10;1.50;;;;;;;;;;6097350;29;20044;-75
2021/07/06 00:55:18;;;;;;;3.75;1.70;;;;;;;;;;6095040;29;20195;-75
2021/07/06 00:58:20;;;;;;;4.68;1.67;;;;;;;;;;6104413;29;20147;-75
2021/07/06 01:01:23;;;;;;;2.80;1.50;;;;;;;;;;6098605;29;20051;-76
2021/07/06 01:04:25;;;;;;;1.70;1.30;;;;;;;;;;6088620;29;20138;-75
2021/07/06 01:07:27;;;;;;;4.47;1.73;;;;;;;;;;6092026;29;20129;-76
2021/07/06 01:10:28;;;;;;;3.60;1.52;;;;;;;;;;6094416;29;20155;-75
2021/07/06 01:13:30;;;;;;;5.03;2.00;;;;;;;;;;6091445;29;20101;-75
2021/07/06 01:16:33;;;;;;;4.00;1.63;;;;;;;;;;6091105;29;20081;-77
2021/07/06 01:19:35;;;;;;;3.35;1.38;;;;;;;;;;6090153;29;20064;-75
2021/07/06 01:22:38;;;;;;;2.55;1.60;;;;;;;;;;6099390;29;20040;-75
2021/07/06 01:25:42;;;;;;;8.30;1.83;;;;;;;;;;6088252;29;20111;-76
2021/07/06 01:28:44;;;;;;;3.30;1.65;;;;;;;;;;6096826;29;20059;-75
2021/07/06 01:31:48;;;;;;;3.90;1.42;;;;;;;;;;6094060;29;20149;-75
2021/07/06 01:34:50;;;;;;;3.83;2.03;;;;;;;;;;6095374;29;20062;-75
2021/07/06 01:37:54;;;;;;;2.90;1.65;;;;;;;;;;6094117;29;20051;-74
2021/07/06 01:40:57;;;;;;;2.60;1.48;;;;;;;;;;6091068;29;20204;-74
2021/07/06 01:43:58;;;;;;;3.20;1.70;;;;;;;;;;6102155;29;20191;-75
2021/07/06 01:47:00;;;;;;;6.13;2.00;;;;;;;;;;6095271;29;20075;-75
2021/07/06 01:50:01;;;;;;;6.03;1.73;;;;;;;;;;6091441;29;20076;-75
2021/07/06 01:53:06;;;;;;;4.07;1.38;;;;;;;;;;6088779;29;20068;-74
2021/07/06 01:56:11;;;;;;;5.05;1.50;;;;;;;;;;6094460;29;20096;-74
2021/07/06 01:59:13;;;;;;;3.17;1.70;;;;;;;;;;6088517;29;20056;-75
2021/07/06 02:02:15;;;;;;;3.05;1.52;;;;;;;;;;6094834;29;20505;-75
2021/07/06 02:05:32;;;;;;;3.05;1.60;;;;;;;;;;6094367;29;20060;-74
2021/07/06 02:08:35;;;;;;;2.67;1.60;;;;;;;;;;6091492;29;20062;-74
2021/07/06 02:11:37;;;;;;;3.40;1.67;;;;;;;;;;6092244;29;20097;-75
2021/07/06 02:14:39;;;;;;;2.55;1.67;;;;;;;;;;6092563;29;20048;-74
2021/07/06 02:17:41;;;;;;;5.13;1.40;;;;;;;;;;6098703;29;20396;-74
2021/07/06 02:20:42;;;;;;;3.30;1.67;;;;;;;;;;6093985;29;20067;-74
2021/07/06 02:23:49;;;;;;;4.65;2.03;;;;;;;;;;6097095;29;20088;-74
2021/07/06 02:26:53;;;;;;;3.80;1.58;;;;;;;;;;6098210;29;20067;-75
2021/07/06 02:29:54;;;;;;;2.47;1.70;;;;;;;;;;6096260;29;20048;-78
2021/07/06 02:32:56;;;;;;;4.07;1.70;;;;;;;;;;6102276;29;20067;-74
2021/07/06 02:35:57;;;;;;;3.67;1.83;;;;;;;;;;6106141;29;20056;-74
2021/07/06 02:39:04;;;;;;;2.40;1.80;;;;;;;;;;6083103;29;20056;-74
2021/07/06 02:42:06;;;;;;;5.15;1.63;;;;;;;;;;6090102;29;20048;-75
2021/07/06 02:45:09;;;;;;;5.35;1.67;;;;;;;;;;6087738;29;20551;-74
2021/07/06 02:48:11;;;;;;;3.60;1.75;;;;;;;;;;6082972;29;20128;-74
2021/07/06 02:51:16;;;;;;;3.25;1.48;;;;;;;;;;6092375;29;20085;-74
2021/07/06 02:54:19;;;;;;;3.47;1.70;;;;;;;;;;6105456;29;20063;-75
2021/07/06 03:00:36;;;;;;;2.53;1.40;;;;;;;;;;6084802;29;20059;-75
2021/07/06 03:03:38;;;;;;;6.35;1.63;;;;;;;;;;6088812;29;20048;-74
2021/07/06 03:06:39;;;;;;;3.83;1.67;;;;;;;;;;6085738;29;20052;-75
2021/07/06 03:09:42;;;;;;;2.97;1.60;;;;;;;;;;6087388;29;20172;-74
2021/07/06 03:12:44;;;;;;;2.05;1.30;;;;;;;;;;6090553;29;20123;-74
2021/07/06 03:15:46;;;;;;;4.82;1.60;;;;;;;;;;6088859;29;20134;-75
2021/07/06 03:18:48;;;;;;;2.97;1.60;;;;;;;;;;6086126;29;20106;-75
2021/07/06 03:21:51;;;;;;;3.13;1.70;;;;;;;;;;6079807;29;20104;-75
2021/07/06 03:24:54;;;;;;;1.80;1.40;;;;;;;;;;6078950;29;20096;-75
2021/07/06 03:27:56;;;;;;;3.63;1.70;;;;;;;;;;6092800;29;20056;-74
2021/07/06 03:30:58;;;;;;;3.08;1.52;;;;;;;;;;6085240;29;20184;-75
2021/07/06 03:34:00;;;;;;;3.08;1.58;;;;;;;;;;6093328;29;20059;-75
2021/07/06 03:37:02;;;;;;;2.63;1.75;;;;;;;;;;6086593;29;20144;-76
2021/07/06 03:40:07;;;;;;;3.72;1.55;;;;;;;;;;6090095;29;20064;-75
2021/07/06 03:43:08;;;;;;;7.13;2.00;;;;;;;;;;6101886;29;20047;-75
2021/07/06 03:46:10;;;;;;;3.00;1.80;;;;;;;;;;6097189;29;20553;-74
2021/07/06 03:49:12;;;;;;;3.55;1.73;;;;;;;;;;6105085;29;20048;-74
2021/07/06 03:52:13;;;;;;;6.82;1.60;;;;;;;;;;6101052;29;20493;-74
2021/07/06 03:55:17;;;;;;;3.38;1.35;;;;;;;;;;6096018;29;20056;-74
2021/07/06 03:58:19;;;;;;;4.13;1.88;;;;;;;;;;6095839;29;20076;-74
2021/07/06 04:01:20;;;;;;;2.25;1.40;;;;;;;;;;6098526;29;20497;-74
2021/07/06 04:04:23;;;;;;;2.63;1.50;;;;;;;;;;6095130;29;20196;-74
2021/07/06 04:07:25;;;;;;;8.55;1.55;;;;;;;;;;6088910;29;20143;-75
2021/07/06 04:10:28;;;;;;;2.83;1.40;;;;;;;;;;6088541;29;20063;-75
2021/07/06 04:13:30;;;;;;;3.55;1.75;;;;;;;;;;6088632;29;20059;-76
2021/07/06 04:16:31;;;;;;;6.95;2.40;;;;;;;;;;6097909;29;20088;-76
2021/07/06 04:19:33;;;;;;;3.30;1.77;;;;;;;;;;6101473;29;20059;-75
2021/07/06 04:22:35;;;;;;;5.00;2.63;;;;;;;;;;6096161;29;20127;-74
2021/07/06 04:25:38;;;;;;;5.05;1.80;;;;;;;;;;6094026;29;20476;-75
2021/07/06 04:28:39;;;;;;;3.92;1.45;;;;;;;;;;6093458;29;20068;-75
2021/07/06 04:31:42;;;;;;;3.75;1.63;;;;;;;;;;6093458;29;20525;-75
2021/07/06 04:34:44;;;;;;;4.43;1.70;;;;;;;;;;6100602;29;20441;-75
2021/07/06 04:37:45;;;;;;;6.05;2.00;;;;;;;;;;6096565;29;20131;-74
2021/07/06 04:40:48;;;;;;;2.92;1.60;;;;;;;;;;6096555;29;20141;-75
2021/07/06 04:43:50;;;;;;;4.78;1.80;;;;;;;;;;6094645;29;20080;-75
2021/07/06 04:46:51;;;;;;;3.47;1.60;;;;;;;;;;6098147;29;20119;-75
2021/07/06 04:49:53;;;;;;;4.28;1.70;;;;;;;;;;6091767;29;20052;-75
2021/07/06 04:52:56;;;;;;;2.10;1.70;;;;;;;;;;6088564;29;20580;-74
2021/07/06 04:56:01;;;;;;;5.63;1.80;;;;;;;;;;6090178;29;20511;-74
2021/07/06 04:59:02;;;;;;;3.85;1.98;;;;;;;;;;6092244;29;20527;-75
2021/07/06 05:02:05;;;;;;;2.60;1.77;;;;;;;;;;6094499;29;20044;-74
2021/07/06 05:05:08;;;;;;;3.58;1.90;;;;;;;;;;6092314;29;20056;-74
2021/07/06 05:08:11;;;;;;;3.38;1.73;;;;;;;;;;6096742;29;20062;-74
2021/07/06 05:11:14;;;;;;;3.17;1.65;;;;;;;;;;6095095;29;20064;-74
2021/07/06 05:14:15;;;;;;;5.50;1.80;;;;;;;;;;6093331;29;20119;-75
2021/07/06 05:17:17;;;;;;;5.40;1.80;;;;;;;;;;6091733;29;20067;-75
2021/07/06 05:20:19;;;;;;;2.47;1.65;;;;;;;;;;6088122;29;20048;-74
2021/07/06 05:23:20;;;;;;;3.45;1.70;;;;;;;;;;6097552;29;20055;-75
2021/07/06 05:26:23;;;;;;;5.13;2.38;;;;;;;;;;6100771;29;20052;-75
2021/07/06 05:29:25;;;;;;;3.13;1.92;;;;;;;;;;6093681;29;20484;-73
2021/07/06 05:32:26;;;;;;;5.35;2.13;;;;;;;;;;6100583;29;20131;-73
2021/07/06 05:35:29;;;;;;;6.28;1.73;;;;;;;;;;6100117;29;20104;-74
2021/07/06 05:38:31;;;;;;;5.22;1.33;;;;;;;;;;6100289;29;20107;-73
2021/07/06 05:41:34;;;;;;;3.00;1.83;;;;;;;;;;6093265;29;20135;-75
2021/07/06 05:44:38;;;;;;;3.20;1.80;;;;;;;;;;6093112;29;20544;-73
2021/07/06 05:47:41;;;;;;;1.65;1.30;;;;;;;;;;6097130;29;20135;-73
2021/07/06 05:50:42;;;;;;;3.15;1.42;;;;;;;;;;6098774;29;20048;-73
2021/07/06 05:53:47;;;;;;;5.72;1.73;;;;;;;;;;6092696;29;20052;-73
2021/07/06 05:56:50;;;;;;;4.50;1.58;;;;;;;;;;6090965;29;20062;-73
2021/07/06 05:59:52;;;;;;;4.15;1.70;;;;;;;;;;6091950;29;20063;-74
2021/07/06 06:02:53;;;;;;;3.30;1.30;;;;;;;;;;6095981;29;20130;-75
2021/07/06 06:05:56;;;;;;;2.17;1.20;;;;;;;;;;6096827;29;20052;-76
2021/07/06 06:08:57;;;;;;;1.95;1.30;;;;;;;;;;6101230;29;20488;-78
2021/07/06 06:12:00;;;;;;;4.43;1.50;;;;;;;;;;6100985;29;20195;-80
2021/07/06 06:15:03;;;;;;;5.65;1.35;;;;;;;;;;6102220;29;20059;-76
2021/07/06 06:18:05;;;;;;;2.93;1.50;;;;;;;;;;6101463;29;20548;-75
2021/07/06 06:21:06;;;;;;;4.63;1.58;;;;;;;;;;6099661;29;20492;-76
2021/07/06 06:24:09;;;;;;;2.47;1.45;;;;;;;;;;6102375;29;20071;-76
2021/07/06 06:27:12;;;;;;;5.88;1.40;;;;;;;;;;6100067;29;20672;-78
2021/07/06 06:30:14;;;;;;;4.38;1.20;;;;;;;;;;6101282;29;20723;-76
2021/07/06 06:33:16;;;;;;;3.40;1.77;;;;;;;;;;6104686;29;20052;-76
2021/07/06 06:36:18;;;;;;;3.92;1.30;;;;;;;;;;6097491;29;20123;-76
2021/07/06 06:39:19;;;;;;;2.47;1.13;;;;;;;;;;6099946;29;20250;-75
2021/07/06 06:42:22;;;;;;;3.70;1.10;;;;;;;;;;6093977;29;20052;-78
2021/07/06 06:45:25;;;;;;;3.08;1.20;;;;;;;;;;6096832;29;20080;-75
2021/07/06 06:48:27;;;;;;;2.25;1.17;;;;;;;;;;6090143;29;20052;-75
2021/07/06 06:51:31;;;;;;;5.05;1.70;;;;;;;;;;6096939;29;20140;-75
2021/07/06 06:54:34;;;;;;;3.58;1.10;;;;;;;;;;6095971;29;20496;-75
2021/07/06 06:57:37;;;;;;;2.13;0.98;;;;;;;;;;6076667;29;20130;-76
2021/07/06 07:00:38;;;;;;;1.92;1.00;;;;;;;;;;6092826;29;20097;-75
2021/07/06 07:03:40;;;;;;;3.08;0.70;;;;;;;;;;6090698;29;20040;-75
2021/07/06 07:06:42;;;;;;;3.70;2.20;;;;;;;;;;6090355;29;20135;-78
2021/07/06 07:09:43;;;;;;;2.17;0.90;;;;;;;;;;6093764;29;20520;-75
2021/07/06 07:12:47;;;;;;;1.85;0.77;;;;;;;;;;6098727;29;20433;-75
2021/07/06 07:15:49;;;;;;;3.88;1.10;;;;;;;;;;6102526;29;20055;-75
2021/07/06 07:18:50;;;;;;;5.28;1.33;;;;;;;;;;6096934;29;20129;-77
2021/07/06 07:21:52;;;;;;;2.65;0.98;;;;;;;;;;6088771;29;20099;-76
2021/07/06 07:24:54;;;;;;;2.63;0.93;;;;;;;;;;6098700;29;20142;-76
2021/07/06 07:27:57;;;;;;;2.35;0.90;;;;;;;;;;6089487;29;20224;-78
2021/07/06 07:30:58;;;;;;;3.28;0.77;;;;;;;;;;6097746;29;20138;-77
2021/07/06 07:34:00;;;;;;;2.88;0.75;;;;;;;;;;6086138;29;20084;-75
2021/07/06 07:37:02;;;;;;;2.08;0.90;;;;;;;;;;6094618;29;20145;-75
2021/07/06 07:40:05;;;;;;;1.48;0.90;;;;;;;;;;6099785;29;20124;-75
2021/07/06 07:43:08;;;;;;;3.55;0.93;;;;;;;;;;6098145;29;20130;-75
2021/07/06 07:46:09;;;;;;;2.05;0.88;;;;;;;;;;6091642;29;20194;-76
2021/07/06 07:49:11;;;;;;;1.50;0.85;;;;;;;;;;6088386;29;20134;-75
2021/07/06 07:52:12;;;;;;;1.40;1.00;;;;;;;;;;6086425;29;20052;-75
2021/07/06 07:55:14;;;;;;;1.30;0.95;;;;;;;;;;6096606;29;20075;-77
2021/07/06 07:58:17;;;;;;;1.63;1.00;;;;;;;;;;6097554;29;20118;-75
2021/07/06 08:01:19;;;;;;;1.52;0.80;;;;;;;;;;6083417;29;20146;-74
2021/07/06 08:04:21;;;;;;;1.30;0.85;;;;;;;;;;6091319;29;20048;-76
2021/07/06 08:07:26;;;;;;;2.03;0.88;;;;;;;;;;6087764;29;20044;-77
2021/07/06 08:10:28;;;;;;;2.67;0.85;;;;;;;;;;6094697;29;20055;-75
2021/07/06 08:13:33;;;;;;;1.27;0.70;;;;;;;;;;6100114;29;20048;-75
2021/07/06 08:16:34;;;;;;;1.35;0.70;;;;;;;;;;6086975;29;20054;-77
2021/07/06 08:19:36;;;;;;;1.83;1.00;;;;;;;;;;6097733;29;20527;-75
2021/07/06 08:22:38;;;;;;;2.60;0.98;;;;;;;;;;6088478;29;20502;-78
2021/07/06 08:25:40;;;;;;;2.50;1.13;;;;;;;;;;6097929;29;20123;-75
2021/07/06 08:28:45;;;;;;;1.38;0.70;;;;;;;;;;6094436;29;20067;-74
2021/07/06 08:31:46;;;;;;;1.42;0.70;;;;;;;;;;6089426;29;20195;-74
2021/07/06 08:34:48;;;;;;;2.47;0.82;;;;;;;;;;6095932;29;20063;-74
2021/07/06 08:37:50;;;;;;;5.75;0.98;;;;;;;;;;6091180;29;20501;-74
2021/07/06 08:40:51;;;;;;;5.05;0.88;;;;;;;;;;6089785;29;20048;-76
2021/07/06 08:43:54;;;;;;;4.03;1.50;;;;;;;;;;6098432;29;20048;-75
2021/07/06 08:46:56;;;;;;;;;;;;;;;;;;6086425;29;20139;-74
2021/07/06 08:49:58;;;;;;;1.25;1.00;;;;;;;;;;6094216;29;20018;-77
2021/07/06 08:52:59;;;;;;;3.13;1.08;;;;;;;;;;6091583;29;20608;-77
2021/07/06 08:56:01;;;;;;;2.42;1.10;;;;;;;;;;6089147;29;20039;-74
2021/07/06 08:59:04;;;;;;;4.18;1.00;;;;;;;;;;6095539;29;20089;-74
2021/07/06 09:02:05;;;;;;;;;;;;;;;;;;6090837;29;20044;-77
2021/07/06 09:05:19;;;;;;;1.92;1.15;;;;;;;;;;6090037;29;19924;-75
2021/07/06 09:08:35;;;;;;;2.80;1.10;;;;;;;;;;6085471;29;20139;-74
2021/07/06 09:11:53;;;;;;;5.70;1.45;;;;;;;;;;6092779;29;20191;-75
2021/07/06 09:15:03;;;;;;;2.90;1.10;;;;;;;;;;6094062;29;20047;-74
2021/07/06 09:18:20;;;;;;;3.40;1.63;;;;;;;;;;6096840;29;20131;-77
2021/07/06 09:21:29;;;;;;;2.35;1.27;;;;;;;;;;6097292;29;20048;-72
2021/07/06 09:24:37;;;;;;;2.85;1.40;;;;;;;;;;6098754;29;20135;-74
2021/07/06 09:27:40;;;;;;;3.28;1.60;;;;;;;;;;6095200;29;20176;-72
2021/07/06 09:30:50;;;;;;;2.67;1.50;;;;;;;;;;6092886;29;20076;-76
2021/07/06 09:34:03;;;;;;;3.28;1.73;;;;;;;;;;6094930;28;20142;-73
2021/07/06 09:37:11;;;;;;;2.33;1.80;;;;;;;;;;6085947;29;20144;-74
2021/07/06 09:40:39;;;;;;;3.72;1.50;;;;;;;;;;6093563;29;20072;-73
2021/07/06 09:43:40;;;;;;;3.00;1.35;;;;;;;;;;6100902;29;20112;-75
2021/07/06 09:46:59;;;;;;;3.45;1.50;;;;;;;;;;6091563;29;20603;-73
2021/07/06 09:50:07;;;;;;;6.20;1.48;;;;;;;;;;6094378;29;20790;-74
2021/07/06 09:53:26;;;;;;;4.30;1.35;;;;;;;;;;6091218;29;20059;-74
2021/07/06 09:56:34;;;;;;;1.73;1.40;;;;;;;;;;6083331;29;20084;-74
2021/07/06 09:59:36;;;;;;;2.15;1.45;;;;;;;;;;6097972;29;20415;-75
2021/07/06 10:02:47;;;;;;;3.35;1.73;;;;;;;;;;6084948;29;20120;-73
2021/07/06 10:05:56;;;;;;;3.40;1.80;;;;;;;;;;6088816;29;20052;-73
2021/07/06 10:09:04;;;;;;;2.05;1.50;;;;;;;;;;6095876;29;20151;-74
2021/07/06 10:12:09;;;;;;;4.03;2.03;;;;;;;;;;6092624;29;20131;-75
2021/07/06 10:15:19;;;;;;;2.03;1.45;;;;;;;;;;6095455;29;20048;-73
2021/07/06 10:18:22;;;;;;;3.22;1.60;;;;;;;;;;6097983;29;20771;-73
2021/07/06 10:21:30;;;;;;;2.53;1.60;;;;;;;;;;6090362;29;20377;-74
2021/07/06 10:24:38;;;;;;;4.07;1.98;;;;;;;;;;6093919;29;20054;-73
2021/07/06 10:27:45;;;;;;;3.97;1.80;;;;;;;;;;6088333;29;20965;-73
2021/07/06 10:30:54;;;;;;;3.40;1.65;;;;;;;;;;6089789;29;20052;-75
2021/07/06 10:34:04;;;;;;;4.13;1.65;;;;;;;;;;6097610;29;20437;-73
2021/07/06 10:37:26;;;;;;;3.95;1.65;;;;;;;;;;6093946;29;20517;-73
2021/07/06 10:40:34;;;;;;;3.60;2.15;;;;;;;;;;6089759;29;20135;-73
2021/07/06 10:43:53;;;;;;;3.42;1.70;;;;;;;;;;6083857;29;20070;-75
2021/07/06 10:47:01;;;;;;;3.05;1.50;;;;;;;;;;6086043;29;20079;-73
2021/07/06 10:50:32;;;;;;;4.80;1.77;;;;;;;;;;6094500;29;20131;-76
2021/07/06 10:53:33;;;;;;;2.17;1.50;;;;;;;;;;6089025;29;20176;-74
2021/07/06 10:56:44;;;;;;;2.90;1.45;;;;;;;;;;6097948;29;20044;-73
2021/07/06 10:59:59;;;;;;;1.30;1.20;;;;;;;;;;6095231;29;20056;-74
2021/07/06 11:03:13;;;;;;;2.78;1.67;;;;;;;;;;6095193;29;20824;-71
2021/07/06 11:06:55;;;;;;;2.17;1.40;;;;;;;;;;6093251;29;20040;-73
2021/07/06 11:10:12;;;;;;;3.95;1.42;;;;;;;;;;6088101;29;20142;-71
2021/07/06 11:13:29;;;;;;;4.25;1.75;;;;;;;;;;6094756;29;20052;-72
2021/07/06 11:16:43;;;;;;;4.28;1.75;;;;;;;;;;6096193;29;20504;-72
2021/07/06 11:19:51;;;;;;;3.10;1.45;;;;;;;;;;6089656;29;20096;-71
2021/07/06 11:22:54;;;;;;;5.28;1.70;;;;;;;;;;6093135;29;20048;-71
2021/07/06 11:26:10;;;;;;;1.92;1.30;;;;;;;;;;6089650;29;20049;-71
2021/07/06 11:29:18;;;;;;;4.22;1.60;;;;;;;;;;6091802;29;20065;-77
2021/07/06 11:32:20;;;;;;;1.75;1.42;;;;;;;;;;6099588;29;20160;-75
2021/07/06 11:35:28;;;;;;;3.03;1.30;;;;;;;;;;6107618;29;20084;-76
2021/07/06 11:38:37;;;;;;;2.92;1.60;;;;;;;;;;6103503;29;20134;-77
2021/07/06 11:41:47;;;;;;;1.63;1.42;;;;;;;;;;6096299;29;20607;-74
2021/07/06 11:44:55;;;;;;;2.30;1.40;;;;;;;;;;6094522;29;20543;-73
2021/07/06 11:48:07;;;;;;;3.22;1.52;;;;;;;;;;6096907;29;20079;-73
2021/07/06 11:51:17;;;;;;;3.05;1.50;;;;;;;;;;6100696;29;20052;-75
2021/07/06 11:54:25;;;;;;;2.60;1.40;;;;;;;;;;6066297;29;20140;-74
2021/07/06 11:57:28;;;;;;;1.90;1.40;;;;;;;;;;6099764;29;20134;-76
2021/07/06 12:00:38;;;;;;;3.45;1.35;;;;;;;;;;6069129;29;20140;-78
2021/07/06 12:03:47;;;;;;;2.83;1.52;;;;;;;;;;6083506;29;20044;-75
2021/07/06 12:07:02;;;;;;;2.75;1.35;;;;;;;;;;6096882;29;20051;-75
2021/07/06 12:10:06;;;;;;;2.13;1.33;;;;;;;;;;6105993;29;20040;-75
2021/07/06 12:13:09;;;;;;;3.92;1.38;;;;;;;;;;6091815;29;20047;-75
2021/07/06 12:16:14;;;;;;;4.72;2.03;;;;;;;;;;6089311;29;20079;-75
2021/07/06 12:19:15;;;;;;;3.53;1.85;;;;;;;;;;6093611;29;20056;-76
2021/07/06 12:22:18;;;;;;;2.05;1.58;;;;;;;;;;6079418;29;20056;-79
2021/07/06 12:25:20;;;;;;;3.97;1.50;;;;;;;;;;6086166;29;20060;-80
2021/07/06 12:28:24;;;;;;;6.75;1.65;;;;;;;;;;6095993;29;20056;-75
2021/07/06 12:31:34;;;;;;;3.60;1.55;;;;;;;;;;6063795;29;20123;-78
2021/07/06 12:34:37;;;;;;;2.33;1.33;;;;;;;;;;6083051;28;20134;-75
2021/07/06 12:37:39;;;;;;;3.13;1.58;;;;;;;;;;6102899;29;20052;-78
2021/07/06 12:40:41;;;;;;;3.03;1.30;;;;;;;;;;6083223;29;20464;-76
2021/07/06 12:43:44;;;;;;;3.03;1.30;;;;;;;;;;6093681;29;20195;-77
2021/07/06 12:46:46;;;;;;;3.65;1.40;;;;;;;;;;6086018;29;20593;-76
2021/07/06 12:49:50;;;;;;;2.15;1.50;;;;;;;;;;6101410;29;20104;-75
2021/07/06 12:52:53;;;;;;;1.55;1.25;;;;;;;;;;6094555;29;20144;-81
2021/07/06 12:55:54;;;;;;;2.40;1.83;;;;;;;;;;6097325;29;20180;-81
2021/07/06 12:59:25;;;;;;;2.38;1.50;;;;;;;;;;6100666;29;20131;-75
2021/07/06 13:02:27;;;;;;;3.00;1.70;;;;;;;;;;6081027;29;20053;-76
2021/07/06 13:05:31;;;;;;;4.72;1.83;;;;;;;;;;6092546;29;20056;-82
2021/07/06 13:08:34;;;;;;;3.90;1.65;;;;;;;;;;6102998;29;20063;-77
2021/07/06 13:11:36;;;;;;;4.82;1.67;;;;;;;;;;6097711;29;20496;-75
2021/07/06 13:14:38;;;;;;;3.78;2.08;;;;;;;;;;6098336;29;20451;-75
2021/07/06 13:17:47;;;;;;;2.13;1.92;;;;;;;;;;6093036;29;20134;-75
2021/07/06 13:20:50;;;;;;;2.83;1.90;;;;;;;;;;6095886;29;20055;-75
2021/07/06 13:23:51;;;;;;;2.17;1.90;;;;;;;;;;6098118;29;20300;-77
2021/07/06 13:26:54;;;;;;;4.45;2.20;;;;;;;;;;6095176;29;20568;-76
2021/07/06 13:29:56;;;;;;;6.63;4.13;;;;;;;;;;6099489;29;20048;-76
2021/07/06 13:33:01;;;;;;;17.67;13.10;;;;;;;;;;6081732;29;20204;-76
2021/07/06 13:36:04;;;;;;;3.33;2.83;;;;;;;;;;6091588;29;20144;-78
2021/07/06 13:39:08;;;;;;;2.85;1.80;;;;;;;;;;6093560;29;20062;-85
2021/07/06 13:42:10;;;;;;;5.25;2.17;;;;;;;;;;6084666;29;20048;-77
2021/07/06 13:45:16;;;;;;;4.78;1.90;;;;;;;;;;6088078;29;20131;-83
2021/07/06 13:48:18;;;;;;;2.58;2.03;;;;;;;;;;6093916;29;20052;-85
2021/07/06 13:51:20;;;;;;;;;;;;;;;;;;6090205;29;20066;-77
2021/07/06 13:54:25;;;;;;;2.83;1.90;;;;;;;;;;6095717;29;20025;-77
2021/07/06 13:57:26;;;;;;;2.25;1.80;;;;;;;;;;6092247;29;20147;-82
2021/07/06 14:00:30;;;;;;;3.25;2.10;;;;;;;;;;6090314;29;20169;-78
2021/07/06 14:03:33;;;;;;;2.83;2.55;;;;;;;;;;6095705;29;20052;-77
2021/07/06 14:06:35;;;;;;;2.72;2.38;;;;;;;;;;6096289;29;20060;-77
2021/07/06 14:09:36;;;;;;;4.03;2.00;;;;;;;;;;6101456;29;20047;-78
2021/07/06 14:12:40;;;;;;;5.17;1.80;;;;;;;;;;6095744;29;20047;-77
2021/07/06 14:15:43;;;;;;;3.67;2.30;;;;;;;;;;6097470;29;20177;-84
2021/07/06 14:18:45;;;;;;;2.13;1.92;;;;;;;;;;6093408;29;20112;-80
2021/07/06 14:21:47;;;;;;;4.43;2.03;;;;;;;;;;6094967;29;20127;-82
2021/07/06 14:24:48;;;;;;;4.82;1.90;;;;;;;;;;6089387;29;20625;-77
2021/07/06 14:27:50;;;;;;;4.50;2.03;;;;;;;;;;6089082;29;20526;-77
2021/07/06 14:30:53;;;;;;;2.47;1.90;;;;;;;;;;6087230;29;20377;-77
2021/07/06 14:33:54;;;;;;;3.38;2.13;;;;;;;;;;6093467;29;20051;-78
2021/07/06 14:36:56;;;;;;;4.03;2.30;;;;;;;;;;6083504;29;20130;-78
2021/07/06 14:39:57;;;;;;;4.00;2.50;;;;;;;;;;6098838;29;20052;-78
2021/07/06 14:43:00;;;;;;;4.22;1.92;;;;;;;;;;6087921;29;20185;-77
2021/07/06 14:46:03;;;;;;;4.53;2.08;;;;;;;;;;6086431;29;20052;-81
2021/07/06 14:49:04;;;;;;;2.55;1.98;;;;;;;;;;6090097;29;20158;-77
2021/07/06 14:52:07;;;;;;;2.38;1.85;;;;;;;;;;6084363;29;20051;-81
2021/07/06 14:55:09;;;;;;;4.75;2.33;;;;;;;;;;6093135;29;20127;-81
2021/07/06 14:58:11;;;;;;;;;;;;;;;;;;6096430;29;20203;-76
2021/07/06 15:01:14;;;;;;;3.38;1.92;;;;;;;;;;6093216;29;20034;-77
2021/07/06 15:04:15;;;;;;;2.63;1.67;;;;;;;;;;6095206;29;20048;-77
2021/07/06 15:07:17;;;;;;;6.90;2.50;;;;;;;;;;6084174;29;20056;-76
2021/07/06 15:10:19;;;;;;;3.80;2.15;;;;;;;;;;6091286;29;20139;-83
2021/07/06 15:13:20;;;;;;;3.20;2.30;;;;;;;;;;6095326;29;20507;-77
2021/07/06 15:16:23;;;;;;;6.40;2.38;;;;;;;;;;6088751;29;20987;-77
2021/07/06 15:19:25;;;;;;;3.72;2.03;;;;;;;;;;6087984;29;20108;-77
2021/07/06 15:22:26;;;;;;;3.03;2.50;;;;;;;;;;6104816;29;20108;-79
2021/07/06 15:25:29;;;;;;;3.80;2.60;;;;;;;;;;6085493;29;20056;-77
2021/07/06 15:28:30;;;;;;;;;;;;;;;;;;6095424;29;20067;-77
2021/07/06 15:31:33;;;;;;;6.20;2.53;;;;;;;;;;6083336;29;20055;-81
2021/07/06 15:34:35;;;;;;;3.83;2.30;;;;;;;;;;6091666;29;20060;-78
2021/07/06 15:37:37;;;;;;;10.87;3.00;;;;;;;;;;6087358;29;20116;-77
2021/07/06 15:40:40;;;;;;;2.50;2.30;;;;;;;;;;6094077;29;20573;-77
2021/07/06 15:43:42;;;;;;;2.72;2.25;;;;;;;;;;6095037;29;20044;-77
2021/07/06 15:46:45;;;;;;;2.40;2.20;;;;;;;;;;6087256;29;20184;-80
2021/07/06 15:49:46;;;;;;;4.00;2.72;;;;;;;;;;6093605;29;20834;-79
2021/07/06 15:52:48;;;;;;;2.57;2.10;;;;;;;;;;6091250;29;20143;-77
2021/07/06 15:55:50;;;;;;;4.57;2.40;;;;;;;;;;6091993;29;20792;-77
2021/07/06 15:58:51;;;;;;;3.95;2.83;;;;;;;;;;6097838;29;20131;-76
2021/07/06 16:01:55;;;;;;;4.97;2.55;;;;;;;;;;6098876;29;20052;-76
2021/07/06 16:04:57;;;;;;;4.80;2.70;;;;;;;;;;6097603;29;20500;-80
2021/07/06 16:07:58;;;;;;;2.55;2.35;;;;;;;;;;6095904;29;20108;-77
2021/07/06 16:11:00;;;;;;;2.33;2.08;;;;;;;;;;6100235;29;20504;-76
2021/07/06 16:14:04;;;;;;;3.15;2.20;;;;;;;;;;6104352;29;20384;-77
2021/07/06 16:17:07;;;;;;;3.47;2.17;;;;;;;;;;6084407;29;20570;-77
2021/07/06 16:20:09;;;;;;;4.07;2.40;;;;;;;;;;6085650;29;20050;-77
2021/07/06 16:23:11;;;;;;;2.88;2.47;;;;;;;;;;6101682;29;20052;-77
2021/07/06 16:26:13;;;;;;;4.30;2.28;;;;;;;;;;6087257;29;20053;-77
2021/07/06 16:29:14;;;;;;;6.60;2.20;;;;;;;;;;6094174;29;20563;-77
2021/07/06 16:32:18;;;;;;;4.25;2.22;;;;;;;;;;6096130;29;20053;-80
2021/07/06 16:35:20;;;;;;;2.40;2.20;;;;;;;;;;6093739;29;20052;-81
2021/07/06 16:38:21;;;;;;;3.10;2.35;;;;;;;;;;6105528;29;20158;-76
2021/07/06 16:41:24;;;;;;;2.63;2.38;;;;;;;;;;6097863;29;20089;-78
2021/07/06 16:44:26;;;;;;;3.40;2.88;;;;;;;;;;6100883;29;20054;-76
2021/07/06 16:47:29;;;;;;;4.95;2.40;;;;;;;;;;6089845;29;20522;-77
2021/07/06 16:50:31;;;;;;;4.57;2.58;;;;;;;;;;6084618;29;20044;-80
2021/07/06 18:00:13;;;;;;;6.28;2.70;;;;;;;;;;6091426;29;20052;-78
2021/07/06 18:03:21;;;;;;;7.75;2.88;;;;;;;;;;6087572;29;20462;-77
2021/07/06 18:06:22;;;;;;;4.32;2.35;;;;;;;;;;6099610;29;20056;-78
2021/07/06 18:09:25;;;;;;;6.43;2.70;;;;;;;;;;6099201;29;20765;-78
2021/07/06 18:12:27;;;;;;;4.25;3.35;;;;;;;;;;6099737;29;20048;-78
2021/07/06 18:15:28;;;;;;;3.50;2.80;;;;;;;;;;6093068;29;20088;-81
2021/07/06 18:18:30;;;;;;;3.85;2.78;;;;;;;;;;6102337;29;21285;-77
2021/07/06 18:21:32;;;;;;;4.82;3.33;;;;;;;;;;6098119;29;20075;-76
2021/07/06 18:24:35;;;;;;;4.10;2.80;;;;;;;;;;6098810;29;20254;-78
2021/07/06 18:27:37;;;;;;;3.65;2.25;;;;;;;;;;6093761;29;20051;-79
2021/07/06 18:30:40;;;;;;;3.83;2.63;;;;;;;;;;6091729;29;20080;-80
2021/07/06 18:33:42;;;;;;;3.03;2.65;;;;;;;;;;6104648;29;20863;-80
2021/07/06 18:36:44;;;;;;;5.85;2.53;;;;;;;;;;6094451;29;20056;-79
2021/07/06 18:39:48;;;;;;;4.05;3.08;;;;;;;;;;6105368;29;20149;-74
2021/07/06 18:42:50;;;;;;;5.50;2.70;;;;;;;;;;6094682;29;20044;-74
2021/07/06 18:45:53;;;;;;;5.85;2.60;;;;;;;;;;6080290;29;20048;-74
2021/07/06 18:48:55;;;;;;;5.68;3.10;;;;;;;;;;6105169;29;20066;-74
2021/07/06 18:51:56;;;;;;;7.40;2.80;;;;;;;;;;6093796;29;20156;-74
2021/07/06 18:54:59;;;;;;;4.93;2.85;;;;;;;;;;6101854;29;20095;-75
2021/07/06 18:58:01;;;;;;;6.82;3.30;;;;;;;;;;6092357;29;20048;-74
2021/07/06 19:01:03;;;;;;;4.22;3.00;;;;;;;;;;6085170;29;20060;-79
2021/07/06 19:04:05;;;;;;;10.48;3.20;;;;;;;;;;6082672;29;20164;-75
2021/07/06 19:07:06;;;;;;;19.58;17.48;;;;;;;;;;6094025;29;20084;-76
2021/07/06 19:10:11;;;;;;;19.08;16.95;;;;;;;;;;6092469;29;20520;-80
2021/07/06 19:13:13;;;;;;;11.45;9.75;;;;;;;;;;6098337;29;20083;-74
2021/07/06 19:16:14;;;;;;;10.15;5.05;;;;;;;;;;6082064;29;20112;-75
2021/07/06 19:19:16;;;;;;;5.97;4.22;;;;;;;;;;6101521;29;20076;-75
2021/07/06 19:22:18;;;;;;;6.00;3.30;;;;;;;;;;6096614;29;20100;-75
2021/07/06 19:25:39;;;;;;;5.28;3.47;;;;;;;;;;6093193;29;20123;-77
2021/07/06 19:28:54;;;;;;;5.57;3.20;;;;;;;;;;6101465;29;20056;-75
2021/07/06 19:31:57;;;;;;;6.47;3.30;;;;;;;;;;6091319;29;20103;-74